createdAt,value
2023-05-09T00:02:09.132Z,10.05
2023-05-09T00:04:37.364Z,11.30
2023-05-09T00:07:05.745Z,10.90
2023-05-09T00:09:33.812Z,10.27
2023-05-09T00:12:04.243Z,10.20
2023-05-09T00:14:33.493Z,10.30
2023-05-09T00:17:01.658Z,11.45
2023-05-09T00:19:29.656Z,12.27
2023-05-09T00:21:57.688Z,10.80
2023-05-09T00:24:25.659Z,11.43
2023-05-09T00:26:53.675Z,12.75
2023-05-09T00:29:23.061Z,12.88
2023-05-09T00:31:51.082Z,11.15
2023-05-09T00:34:20.960Z,11.00
2023-05-09T00:36:49.861Z,11.27
2023-05-09T00:39:18.008Z,10.20
2023-05-09T00:41:45.944Z,10.43
2023-05-09T00:44:14.006Z,11.77
2023-05-09T00:46:43.434Z,12.30
2023-05-09T00:49:12.407Z,12.02
2023-05-09T00:51:41.879Z,12.70
2023-05-09T00:54:10.210Z,13.13
2023-05-09T00:56:38.684Z,11.40
2023-05-09T00:59:07.413Z,14.95
2023-05-09T01:01:35.592Z,14.25
2023-05-09T01:04:05.569Z,13.75
2023-05-09T01:06:39.833Z,13.35
2023-05-09T01:09:16.632Z,14.15
2023-05-09T01:11:50.488Z,11.57
2023-05-09T01:14:30.902Z,14.02
2023-05-09T01:17:06.682Z,11.43
2023-05-09T01:19:58.387Z,11.43
2023-05-09T01:22:30.954Z,12.52
2023-05-09T01:25:21.830Z,11.45
2023-05-09T01:27:58.621Z,14.63
2023-05-09T01:30:29.352Z,12.90
2023-05-09T01:33:01.702Z,11.35
2023-05-09T01:35:34.316Z,10.90
2023-05-09T01:38:05.757Z,12.55
2023-05-09T01:40:35.362Z,12.32
2023-05-09T01:43:07.035Z,13.13
2023-05-09T01:45:38.985Z,11.55
2023-05-09T01:48:09.424Z,10.98
2023-05-09T01:50:40.894Z,12.43
2023-05-09T01:53:11.508Z,11.80
2023-05-09T01:55:41.181Z,11.52
2023-05-09T01:58:10.710Z,12.20
2023-05-09T02:00:40.581Z,11.52
2023-05-09T02:03:09.506Z,11.15
2023-05-09T02:05:38.326Z,12.07
2023-05-09T02:08:07.090Z,12.48
2023-05-09T02:10:36.865Z,12.90
2023-05-09T02:13:06.811Z,11.88
2023-05-09T02:15:35.687Z,12.50
2023-05-09T02:18:05.390Z,13.57
2023-05-09T02:20:35.815Z,14.27
2023-05-09T02:23:04.148Z,13.75
2023-05-09T02:25:33.417Z,13.80
2023-05-09T02:28:02.587Z,16.08
2023-05-09T02:30:36.107Z,12.75
2023-05-09T02:33:09.388Z,13.20
2023-05-09T02:35:37.966Z,14.75
2023-05-09T02:38:06.558Z,13.15
2023-05-09T02:40:36.459Z,13.23
2023-05-09T02:43:04.984Z,12.55
2023-05-09T02:45:33.044Z,14.90
2023-05-09T02:48:01.112Z,14.98
2023-05-09T02:50:30.462Z,13.27
2023-05-09T02:52:58.693Z,15.02
2023-05-09T02:55:27.057Z,13.10
2023-05-09T02:58:09.404Z,12.30
2023-05-09T03:00:40.730Z,13.43
2023-05-09T03:03:10.032Z,13.05
2023-05-09T03:05:39.665Z,14.80
2023-05-09T03:08:07.897Z,14.50
2023-05-09T03:10:36.376Z,14.23
2023-05-09T03:13:04.938Z,14.02
2023-05-09T03:15:33.763Z,14.27
2023-05-09T03:18:01.965Z,13.77
2023-05-09T03:20:30.666Z,14.57
2023-05-09T03:23:00.270Z,14.27
2023-05-09T03:25:28.251Z,13.27
2023-05-09T03:27:56.377Z,14.30
2023-05-09T03:30:26.455Z,13.95
2023-05-09T03:32:55.964Z,14.02
2023-05-09T03:35:24.470Z,13.52
2023-05-09T03:37:52.506Z,16.23
2023-05-09T03:40:21.906Z,15.27
2023-05-09T03:42:56.633Z,15.00
2023-05-09T03:45:24.796Z,15.60
2023-05-09T03:47:53.192Z,15.13
2023-05-09T03:50:21.387Z,15.63
2023-05-09T03:52:50.455Z,17.38
2023-05-09T03:55:19.265Z,15.63
2023-05-09T03:57:48.549Z,17.88
2023-05-09T04:00:17.384Z,16.38
2023-05-09T04:02:58.256Z,18.42
2023-05-09T04:05:35.266Z,16.02
2023-05-09T04:08:04.652Z,15.88
2023-05-09T04:10:33.709Z,14.57
2023-05-09T04:13:03.836Z,15.85
2023-05-09T04:15:32.212Z,15.52
2023-05-09T04:18:00.250Z,14.68
2023-05-09T04:20:28.740Z,14.60
2023-05-09T04:22:57.216Z,13.52
2023-05-09T04:25:25.380Z,13.98
2023-05-09T04:27:53.436Z,14.27
2023-05-09T04:30:23.072Z,13.70
2023-05-09T04:32:51.151Z,19.20
2023-05-09T04:35:20.709Z,15.35
2023-05-09T04:37:50.340Z,14.93
2023-05-09T04:40:19.032Z,15.13
2023-05-09T04:42:57.233Z,15.40
2023-05-09T04:45:29.398Z,16.20
2023-05-09T04:47:59.537Z,15.13
2023-05-09T04:50:27.621Z,14.85
2023-05-09T04:52:55.584Z,13.98
2023-05-09T04:55:23.664Z,15.85
2023-05-09T04:57:52.700Z,14.82
2023-05-09T05:00:21.387Z,15.25
2023-05-09T05:02:51.632Z,15.02
2023-05-09T05:05:25.061Z,14.70
2023-05-09T05:07:54.157Z,15.77
2023-05-09T05:10:25.613Z,16.42
2023-05-09T05:13:01.931Z,18.58
2023-05-09T05:15:30.109Z,14.98
2023-05-09T05:18:00.299Z,18.67
2023-05-09T05:20:33.089Z,17.08
2023-05-09T05:23:01.556Z,15.48
2023-05-09T05:25:29.580Z,17.35
2023-05-09T05:27:58.669Z,18.33
2023-05-09T05:30:26.834Z,16.98
2023-05-09T05:32:54.982Z,15.63
2023-05-09T05:35:24.991Z,16.35
2023-05-09T05:37:54.193Z,15.10
2023-05-09T05:40:23.337Z,14.98
2023-05-09T05:42:53.207Z,14.63
2023-05-09T05:45:21.527Z,14.45
2023-05-09T05:47:53.316Z,14.45
2023-05-09T05:50:21.846Z,14.80
2023-05-09T05:52:51.201Z,13.88
2023-05-09T05:55:20.501Z,13.75
2023-05-09T05:57:48.657Z,17.23
2023-05-09T06:00:18.011Z,14.35
2023-05-09T06:02:50.666Z,14.07
2023-05-09T06:05:24.863Z,13.10
2023-05-09T06:07:54.742Z,13.50
2023-05-09T06:10:22.945Z,12.90
2023-05-09T06:12:50.963Z,13.15
2023-05-09T06:15:19.155Z,12.88
2023-05-09T06:17:50.184Z,12.88
2023-05-09T06:20:18.341Z,13.95
2023-05-09T06:22:46.589Z,12.70
2023-05-09T06:25:16.270Z,14.75
2023-05-09T06:27:44.693Z,14.05
2023-05-09T06:30:24.665Z,14.40
2023-05-09T06:32:54.165Z,13.70
2023-05-09T06:35:22.348Z,13.65
2023-05-09T06:37:50.447Z,11.18
2023-05-09T06:40:20.038Z,12.82
2023-05-09T06:42:48.058Z,14.57
2023-05-09T06:45:17.003Z,12.38
2023-05-09T06:47:45.526Z,12.70
2023-05-09T06:50:13.672Z,12.85
2023-05-09T06:52:41.693Z,12.02
2023-05-09T06:55:11.130Z,11.57
2023-05-09T06:57:41.239Z,11.88
2023-05-09T07:00:10.834Z,12.43
2023-05-09T07:02:41.825Z,11.25
2023-05-09T07:05:10.851Z,11.43
2023-05-09T07:07:38.964Z,11.05
2023-05-09T07:10:12.090Z,11.07
2023-05-09T07:12:42.047Z,10.82
2023-05-09T07:15:11.478Z,11.35
2023-05-09T07:17:39.677Z,11.52
2023-05-09T07:20:08.830Z,12.25
2023-05-09T07:22:37.758Z,12.85
2023-05-09T07:25:08.668Z,10.63
2023-05-09T07:27:36.808Z,10.77
2023-05-09T07:30:07.596Z,11.05
2023-05-09T07:32:35.911Z,9.65
2023-05-09T07:35:04.109Z,11.07
2023-05-09T07:37:32.123Z,10.20
2023-05-09T07:40:00.401Z,11.00
2023-05-09T07:42:30.225Z,9.55
2023-05-09T07:44:59.079Z,8.02
2023-05-09T07:47:28.564Z,8.15
2023-05-09T07:49:56.677Z,8.20
2023-05-09T07:52:24.835Z,8.30
2023-05-09T07:54:52.838Z,7.82
2023-05-09T07:57:20.908Z,7.45
2023-05-09T07:59:48.914Z,7.22
2023-05-09T08:02:17.017Z,7.70
2023-05-09T08:04:48.828Z,7.22
2023-05-09T08:07:17.393Z,6.80
2023-05-09T08:09:45.563Z,6.13
2023-05-09T08:12:13.576Z,5.80
2023-05-09T08:14:41.613Z,6.32
2023-05-09T08:17:09.677Z,6.60
2023-05-09T08:19:37.726Z,5.80
2023-05-09T08:22:07.123Z,6.90
2023-05-09T08:24:35.164Z,6.90
2023-05-09T08:27:03.772Z,7.25
2023-05-09T08:29:31.920Z,7.32
2023-05-09T08:31:59.919Z,7.47
2023-05-09T08:34:28.084Z,6.93
2023-05-09T08:36:56.090Z,6.85
2023-05-09T08:39:25.391Z,7.47
2023-05-09T08:41:55.783Z,6.65
2023-05-09T08:44:24.558Z,6.65
2023-05-09T08:46:55.025Z,5.43
2023-05-09T08:49:23.932Z,5.53
2023-05-09T08:51:52.968Z,4.65
2023-05-09T08:54:22.912Z,5.50
2023-05-09T08:56:52.839Z,5.85
2023-05-09T08:59:21.066Z,4.53
2023-05-09T09:01:51.607Z,5.03
2023-05-09T09:04:19.747Z,5.68
2023-05-09T09:06:48.143Z,4.82
2023-05-09T09:09:17.414Z,5.45
2023-05-09T09:11:46.390Z,5.30
2023-05-09T09:14:25.471Z,4.85
2023-05-09T09:16:55.609Z,4.63
2023-05-09T09:19:28.137Z,4.30
2023-05-09T09:21:59.689Z,4.07
2023-05-09T09:24:27.677Z,5.75
2023-05-09T09:26:55.659Z,3.58
2023-05-09T09:29:28.671Z,4.13
2023-05-09T09:31:56.841Z,3.90
2023-05-09T09:34:25.116Z,4.82
2023-05-09T09:36:53.105Z,5.05
2023-05-09T09:39:21.983Z,3.53
2023-05-09T09:41:50.418Z,4.22
2023-05-09T09:44:19.783Z,4.50
2023-05-09T09:46:51.319Z,4.20
2023-05-09T09:49:21.512Z,3.60
2023-05-09T09:51:53.547Z,5.15
2023-05-09T09:54:23.085Z,3.75
2023-05-09T09:56:54.278Z,3.00
2023-05-09T09:59:24.897Z,3.20
2023-05-09T10:01:59.353Z,5.53
2023-05-09T10:04:29.577Z,3.40
2023-05-09T10:06:59.688Z,3.00
2023-05-09T10:09:28.814Z,3.53
2023-05-09T10:11:58.129Z,4.00
2023-05-09T10:14:27.379Z,3.08
2023-05-09T10:16:58.041Z,2.47
2023-05-09T10:19:29.650Z,2.70
2023-05-09T10:21:59.665Z,2.67
2023-05-09T10:24:30.657Z,2.90
2023-05-09T10:27:05.240Z,2.67
2023-05-09T10:29:36.515Z,2.55
2023-05-09T10:32:13.178Z,2.83
2023-05-09T10:34:43.572Z,3.10
2023-05-09T10:37:12.612Z,3.15
2023-05-09T10:39:41.196Z,2.45
2023-05-09T10:42:17.608Z,4.25
2023-05-09T10:44:46.490Z,2.47
2023-05-09T10:47:15.896Z,3.22
2023-05-09T10:49:44.165Z,2.88
2023-05-09T10:52:12.482Z,2.78
2023-05-09T10:54:40.450Z,3.25
2023-05-09T10:57:10.729Z,2.53
2023-05-09T10:59:42.489Z,10.10
2023-05-09T11:02:14.856Z,2.17
2023-05-09T11:04:44.126Z,2.47
2023-05-09T11:07:25.619Z,1.95
2023-05-09T11:10:07.729Z,2.08
2023-05-09T11:12:35.790Z,2.50
2023-05-09T11:15:09.698Z,3.13
2023-05-09T11:17:39.607Z,2.88
2023-05-09T11:20:09.648Z,3.10
2023-05-09T11:22:42.318Z,2.90
2023-05-09T11:25:11.581Z,3.20
2023-05-09T11:27:42.419Z,2.70
2023-05-09T11:30:15.400Z,2.83
2023-05-09T11:32:45.826Z,2.58
2023-05-09T11:35:16.425Z,3.28
2023-05-09T11:37:49.756Z,2.60
2023-05-09T11:40:19.356Z,2.92
2023-05-09T11:42:49.748Z,6.80
2023-05-09T11:45:19.358Z,2.90
2023-05-09T11:47:48.430Z,4.30
2023-05-09T11:50:17.916Z,2.83
2023-05-09T11:52:47.335Z,2.90
2023-05-09T11:55:16.782Z,3.00
2023-05-09T11:57:47.175Z,2.90
2023-05-09T12:00:17.462Z,2.97
2023-05-09T12:02:47.907Z,4.60
2023-05-09T12:05:18.639Z,2.53
2023-05-09T12:07:47.653Z,2.08
2023-05-09T12:10:16.963Z,2.17
2023-05-09T12:12:46.402Z,1.80
2023-05-09T12:15:15.537Z,2.25
2023-05-09T12:17:47.245Z,3.50
2023-05-09T12:20:17.011Z,1.88
2023-05-09T12:22:45.191Z,2.50
2023-05-09T12:25:13.777Z,2.13
2023-05-09T12:27:42.764Z,1.90
2023-05-09T12:30:14.150Z,2.38
2023-05-09T12:32:43.587Z,2.20
2023-05-09T12:35:13.101Z,2.15
2023-05-09T12:37:41.259Z,3.85
2023-05-09T12:40:15.174Z,2.30
2023-05-09T12:42:46.467Z,2.88
2023-05-09T12:45:15.795Z,2.50
2023-05-09T12:47:45.422Z,2.20
2023-05-09T12:50:14.963Z,2.85
2023-05-09T12:52:54.521Z,2.83
2023-05-09T12:55:30.254Z,2.78
2023-05-09T12:57:59.963Z,2.50
2023-05-09T13:00:28.208Z,2.88
2023-05-09T13:02:56.845Z,4.53
2023-05-09T13:05:26.389Z,3.13
2023-05-09T13:07:58.093Z,2.80
2023-05-09T13:10:28.577Z,2.90
2023-05-09T13:12:57.278Z,2.75
2023-05-09T13:15:26.810Z,3.58
2023-05-09T13:17:55.446Z,2.90
2023-05-09T13:20:23.645Z,3.08
2023-05-09T13:22:53.077Z,2.83
2023-05-09T13:25:21.393Z,2.85
2023-05-09T13:27:49.405Z,2.35
2023-05-09T13:30:18.239Z,2.30
2023-05-09T13:32:47.468Z,3.03
2023-05-09T13:35:17.340Z,2.15
2023-05-09T13:37:45.470Z,2.95
2023-05-09T13:40:15.767Z,2.20
2023-05-09T13:42:44.020Z,2.50
2023-05-09T13:45:12.795Z,2.20
2023-05-09T13:47:41.345Z,2.60
2023-05-09T13:50:10.167Z,2.58
2023-05-09T13:52:38.200Z,2.53
2023-05-09T13:55:07.013Z,2.17
2023-05-09T13:57:36.402Z,2.47
2023-05-09T14:00:05.147Z,2.22
2023-05-09T14:02:40.599Z,2.53
2023-05-09T14:05:09.369Z,2.50
2023-05-09T14:07:37.496Z,3.17
2023-05-09T14:10:16.177Z,2.30
2023-05-09T14:12:47.195Z,2.83
2023-05-09T14:15:16.192Z,2.20
2023-05-09T14:17:44.452Z,2.80
2023-05-09T14:20:15.626Z,2.20
2023-05-09T14:22:43.856Z,2.40
2023-05-09T14:25:11.837Z,2.65
2023-05-09T14:27:40.139Z,2.70
2023-05-09T14:30:10.844Z,3.67
2023-05-09T14:32:38.852Z,2.42
2023-05-09T14:35:07.814Z,7.40
2023-05-09T14:37:35.914Z,4.85
2023-05-09T14:40:05.622Z,6.03
2023-05-09T14:42:33.898Z,6.65
2023-05-09T14:45:01.876Z,7.63
2023-05-09T14:47:31.259Z,8.43
2023-05-09T14:49:59.679Z,8.10
2023-05-09T14:52:28.697Z,8.43
2023-05-09T14:54:56.771Z,9.25
2023-05-09T14:57:24.763Z,8.25
2023-05-09T14:59:52.925Z,8.70
2023-05-09T15:02:20.985Z,8.82
2023-05-09T15:04:50.453Z,9.02
2023-05-09T15:07:18.723Z,9.93
2023-05-09T15:09:46.752Z,9.60
2023-05-09T15:12:15.001Z,10.32
2023-05-09T15:14:43.109Z,9.50
2023-05-09T15:17:11.147Z,8.50
2023-05-09T15:19:39.704Z,9.70
2023-05-09T15:22:09.578Z,9.32
2023-05-09T15:24:37.812Z,10.25
2023-05-09T15:27:05.830Z,9.05
2023-05-09T15:29:33.820Z,9.05
2023-05-09T15:32:01.858Z,9.63
2023-05-09T15:34:29.785Z,7.85
2023-05-09T15:36:57.733Z,8.82
2023-05-09T15:39:27.246Z,9.15
2023-05-09T15:41:55.217Z,7.75
2023-05-09T15:44:23.323Z,8.45
2023-05-09T15:46:51.322Z,7.45
2023-05-09T15:49:19.310Z,7.30
2023-05-09T15:51:47.290Z,7.88
2023-05-09T15:54:15.331Z,6.97
2023-05-09T15:56:44.810Z,7.38
2023-05-09T15:59:12.853Z,6.20
2023-05-09T16:01:40.954Z,7.93
2023-05-09T16:04:09.194Z,7.88
2023-05-09T16:06:37.871Z,7.13
2023-05-09T16:09:06.758Z,8.05
2023-05-09T16:11:34.778Z,7.78
2023-05-09T16:14:05.471Z,11.20
2023-05-09T16:16:33.819Z,7.55
2023-05-09T16:19:02.690Z,7.43
2023-05-09T16:21:33.030Z,6.93
2023-05-09T16:24:02.824Z,6.93
2023-05-09T16:26:31.048Z,7.10
2023-05-09T16:28:59.223Z,8.25
2023-05-09T16:31:28.644Z,7.10
2023-05-09T16:33:56.858Z,8.63
2023-05-09T16:36:24.949Z,6.70
2023-05-09T16:38:53.111Z,7.22
2023-05-09T16:41:21.313Z,8.00
2023-05-09T16:43:49.428Z,7.53
2023-05-09T16:46:17.603Z,7.63
2023-05-09T16:48:47.102Z,7.70
2023-05-09T16:51:15.039Z,8.15
2023-05-09T16:53:43.488Z,7.63
2023-05-09T16:56:11.512Z,7.63
2023-05-09T16:58:39.779Z,7.50
2023-05-09T17:01:07.795Z,11.05
2023-05-09T17:03:35.896Z,9.00
2023-05-09T17:06:05.523Z,8.15
2023-05-09T17:08:33.605Z,8.02
2023-05-09T17:11:01.669Z,8.05
2023-05-09T17:13:29.655Z,7.25
2023-05-09T17:15:57.735Z,7.10
2023-05-09T17:18:36.982Z,7.47
2023-05-09T17:21:07.661Z,7.78
2023-05-09T17:23:35.661Z,7.50
2023-05-09T17:26:03.814Z,7.45
2023-05-09T17:28:31.856Z,7.80
2023-05-09T17:30:59.982Z,8.38
2023-05-09T17:33:28.078Z,8.18
2023-05-09T17:35:57.423Z,8.02
2023-05-09T17:38:26.754Z,6.55
2023-05-09T17:40:54.783Z,6.13
2023-05-09T17:43:24.042Z,6.25
2023-05-09T17:45:52.769Z,6.53
2023-05-09T17:48:21.200Z,7.45
2023-05-09T17:50:49.257Z,6.78
2023-05-09T17:53:17.548Z,6.40
2023-05-09T17:55:47.064Z,6.45
2023-05-09T17:58:15.805Z,6.68
2023-05-09T18:00:44.628Z,5.88
2023-05-09T18:03:12.788Z,6.13
2023-05-09T18:05:40.939Z,6.13
2023-05-09T18:08:08.946Z,6.88
2023-05-09T18:10:37.035Z,6.43
2023-05-09T18:13:06.634Z,5.70
2023-05-09T18:15:37.992Z,5.15
2023-05-09T18:18:06.709Z,6.53
2023-05-09T18:20:34.733Z,3.20
2023-05-09T18:23:03.040Z,2.30
2023-05-09T18:25:31.203Z,2.47
2023-05-09T18:27:59.342Z,1.98
2023-05-09T18:30:28.871Z,2.28
2023-05-09T18:33:00.380Z,2.40
2023-05-09T18:35:28.695Z,2.63
2023-05-09T18:37:56.804Z,2.50
2023-05-09T18:40:25.799Z,2.20
2023-05-09T18:42:54.190Z,2.47
2023-05-09T18:45:25.979Z,2.20
2023-05-09T18:47:55.864Z,2.03
2023-05-09T18:50:24.245Z,1.90
2023-05-09T18:52:52.353Z,2.15
2023-05-09T18:55:21.897Z,2.20
2023-05-09T18:57:50.296Z,2.28
2023-05-09T19:00:18.525Z,2.47
2023-05-09T19:02:46.637Z,2.47
2023-05-09T19:05:15.962Z,2.20
2023-05-09T19:07:43.995Z,2.53
2023-05-09T19:10:13.242Z,2.40
2023-05-09T19:12:41.576Z,2.03
2023-05-09T19:15:11.211Z,2.38
2023-05-09T19:17:39.290Z,2.20
2023-05-09T19:20:08.545Z,2.60
2023-05-09T19:22:39.154Z,3.13
2023-05-09T19:25:07.832Z,2.55
2023-05-09T19:27:35.962Z,2.70
2023-05-09T19:30:04.326Z,2.78
2023-05-09T19:32:32.534Z,3.05
2023-05-09T19:35:00.615Z,3.55
2023-05-09T19:37:28.590Z,2.72
2023-05-09T19:39:58.306Z,3.25
2023-05-09T19:42:26.513Z,2.88
2023-05-09T19:44:54.539Z,2.92
2023-05-09T19:47:22.552Z,3.03
2023-05-09T19:49:50.856Z,3.47
2023-05-09T19:52:19.256Z,2.65
2023-05-09T19:54:47.223Z,2.65
2023-05-09T19:57:16.657Z,2.65
2023-05-09T19:59:44.605Z,2.90
2023-05-09T20:02:12.554Z,3.30
2023-05-09T20:04:46.478Z,3.20
2023-05-09T20:07:14.755Z,3.38
2023-05-09T20:09:42.886Z,3.10
2023-05-09T20:12:11.597Z,3.25
2023-05-09T20:14:41.005Z,3.15
2023-05-09T20:17:09.077Z,2.88
2023-05-09T20:19:37.083Z,3.30
2023-05-09T20:22:05.161Z,3.10
2023-05-09T20:24:33.213Z,3.42
2023-05-09T20:27:02.560Z,2.80
2023-05-09T20:29:30.663Z,2.70
2023-05-09T20:32:00.058Z,2.22
2023-05-09T20:34:28.411Z,2.40
2023-05-09T20:36:58.025Z,3.00
2023-05-09T20:39:26.833Z,2.03
2023-05-09T20:41:55.782Z,1.98
2023-05-09T20:44:23.962Z,1.92
2023-05-09T20:46:52.828Z,1.00
2023-05-09T20:49:22.747Z,4.05
2023-05-09T20:51:50.983Z,1.60
2023-05-09T20:54:19.160Z,1.08
2023-05-09T20:56:47.180Z,1.58
2023-05-09T20:59:15.400Z,1.30
2023-05-09T21:01:43.940Z,1.70
2023-05-09T21:04:12.024Z,3.42
2023-05-09T21:06:41.467Z,1.88
2023-05-09T21:09:10.036Z,1.60
2023-05-09T21:11:38.536Z,2.38
2023-05-09T21:14:07.199Z,3.30
2023-05-09T21:16:35.531Z,2.40
2023-05-09T21:19:05.217Z,2.45
2023-05-09T21:21:33.711Z,2.38
2023-05-09T21:24:08.743Z,3.05
2023-05-09T21:26:36.983Z,2.70
2023-05-09T21:29:05.324Z,2.33
2023-05-09T21:31:33.530Z,2.65
2023-05-09T21:34:01.852Z,2.58
2023-05-09T21:36:29.770Z,2.60
2023-05-09T21:38:57.727Z,2.88
2023-05-09T21:41:27.943Z,3.13
2023-05-09T21:43:56.058Z,2.78
2023-05-09T21:46:24.054Z,2.70
2023-05-09T21:48:52.119Z,2.60
2023-05-09T21:51:20.265Z,2.75
2023-05-09T21:53:48.176Z,2.25
2023-05-09T21:56:16.101Z,2.50
2023-05-09T21:58:45.341Z,2.65
2023-05-09T22:01:13.292Z,2.30
2023-05-09T22:03:41.490Z,2.75
2023-05-09T22:06:09.599Z,2.30
2023-05-09T22:08:37.607Z,2.30
2023-05-09T22:11:05.806Z,2.60
2023-05-09T22:13:33.811Z,2.55
2023-05-09T22:16:03.852Z,2.20
2023-05-09T22:18:32.209Z,2.70
2023-05-09T22:21:00.555Z,2.42
2023-05-09T22:23:28.620Z,2.40
2023-05-09T22:25:56.625Z,2.60
2023-05-09T22:28:24.623Z,2.10
2023-05-09T22:30:52.646Z,2.00
2023-05-09T22:33:22.048Z,2.33
2023-05-09T22:35:49.995Z,2.47
2023-05-09T22:38:18.176Z,2.67
2023-05-09T22:40:46.241Z,3.00
2023-05-09T22:43:14.435Z,2.15
2023-05-09T22:45:42.494Z,2.15
2023-05-09T22:48:10.841Z,2.50
2023-05-09T22:50:40.224Z,2.60
2023-05-09T22:53:08.241Z,2.67
2023-05-09T22:55:36.438Z,2.80
2023-05-09T22:58:04.690Z,2.92
2023-05-09T23:00:32.765Z,3.05
2023-05-09T23:03:03.092Z,2.80
2023-05-09T23:05:31.500Z,2.70
2023-05-09T23:08:00.903Z,2.90
2023-05-09T23:10:28.897Z,2.78
2023-05-09T23:12:56.982Z,2.60
2023-05-09T23:15:24.989Z,2.80
2023-05-09T23:17:53.056Z,3.30
2023-05-09T23:20:21.161Z,3.72
2023-05-09T23:22:49.208Z,3.08
2023-05-09T23:25:18.596Z,3.58
2023-05-09T23:27:46.873Z,3.70
2023-05-09T23:30:15.302Z,2.95
2023-05-09T23:32:44.265Z,2.85
2023-05-09T23:35:12.299Z,3.58
2023-05-09T23:37:40.378Z,4.00
2023-05-09T23:40:09.659Z,3.80
2023-05-09T23:42:39.014Z,3.80
2023-05-09T23:45:08.034Z,3.10
2023-05-09T23:47:36.122Z,2.90
2023-05-09T23:50:04.366Z,4.50
2023-05-09T23:52:32.680Z,3.80
2023-05-09T23:55:00.646Z,5.18
2023-05-09T23:57:28.639Z,5.63
2023-05-09T23:59:58.036Z,4.50
